sensor_id;sensor_type;location;lat;lon;timestamp;temperature;humidity
6439;DHT22;3252;52.540;13.290;2023-04-25T00:00:24;9.30;99.90
6439;DHT22;3252;52.540;13.290;2023-04-25T00:02:27;9.30;99.90
6439;DHT22;3252;52.540;13.290;2023-04-25T00:04:31;9.30;99.90
6439;DHT22;3252;52.540;13.290;2023-04-25T00:06:35;9.30;99.90
6439;DHT22;3252;52.540;13.290;2023-04-25T00:08:38;9.30;99.90
6439;DHT22;3252;52.540;13.290;2023-04-25T00:10:40;9.30;99.90
6439;DHT22;3252;52.540;13.290;2023-04-25T00:12:45;9.30;99.90
6439;DHT22;3252;52.540;13.290;2023-04-25T00:14:58;9.30;99.90
6439;DHT22;3252;52.540;13.290;2023-04-25T00:17:00;9.40;99.90
6439;DHT22;3252;52.540;13.290;2023-04-25T00:19:03;9.40;99.90
6439;DHT22;3252;52.540;13.290;2023-04-25T00:21:07;9.30;99.90
6439;DHT22;3252;52.540;13.290;2023-04-25T00:23:10;9.30;99.90
6439;DHT22;3252;52.540;13.290;2023-04-25T00:25:12;9.30;99.90
6439;DHT22;3252;52.540;13.290;2023-04-25T00:27:17;9.30;99.90
6439;DHT22;3252;52.540;13.290;2023-04-25T00:29:20;9.30;99.90
6439;DHT22;3252;52.540;13.290;2023-04-25T00:31:22;9.30;99.90
6439;DHT22;3252;52.540;13.290;2023-04-25T00:33:25;9.30;99.90
6439;DHT22;3252;52.540;13.290;2023-04-25T00:35:27;9.40;99.90
6439;DHT22;3252;52.540;13.290;2023-04-25T00:37:31;9.40;99.90
6439;DHT22;3252;52.540;13.290;2023-04-25T00:39:34;9.40;99.90
6439;DHT22;3252;52.540;13.290;2023-04-25T00:41:37;9.40;99.90
6439;DHT22;3252;52.540;13.290;2023-04-25T00:43:45;9.40;99.90
6439;DHT22;3252;52.540;13.290;2023-04-25T00:45:48;9.40;99.90
6439;DHT22;3252;52.540;13.290;2023-04-25T00:47:52;9.40;99.90
6439;DHT22;3252;52.540;13.290;2023-04-25T00:49:57;9.40;99.90
6439;DHT22;3252;52.540;13.290;2023-04-25T00:51:59;9.30;99.90
6439;DHT22;3252;52.540;13.290;2023-04-25T00:54:03;9.40;99.90
6439;DHT22;3252;52.540;13.290;2023-04-25T00:56:06;9.40;99.90
6439;DHT22;3252;52.540;13.290;2023-04-25T00:58:08;9.30;99.90
6439;DHT22;3252;52.540;13.290;2023-04-25T01:00:15;9.30;99.90
6439;DHT22;3252;52.540;13.290;2023-04-25T01:02:18;9.30;99.90
6439;DHT22;3252;52.540;13.290;2023-04-25T01:04:24;9.30;99.90
6439;DHT22;3252;52.540;13.290;2023-04-25T01:06:28;9.30;99.90
6439;DHT22;3252;52.540;13.290;2023-04-25T01:08:34;9.40;99.90
6439;DHT22;3252;52.540;13.290;2023-04-25T01:10:37;9.30;99.90
6439;DHT22;3252;52.540;13.290;2023-04-25T01:12:40;9.30;99.90
6439;DHT22;3252;52.540;13.290;2023-04-25T01:14:43;9.40;99.90
6439;DHT22;3252;52.540;13.290;2023-04-25T01:16:45;9.30;99.90
6439;DHT22;3252;52.540;13.290;2023-04-25T01:18:52;9.30;99.90
6439;DHT22;3252;52.540;13.290;2023-04-25T01:20:55;9.30;99.90
6439;DHT22;3252;52.540;13.290;2023-04-25T01:23:02;9.30;99.90
6439;DHT22;3252;52.540;13.290;2023-04-25T01:25:08;9.30;99.90
6439;DHT22;3252;52.540;13.290;2023-04-25T01:27:14;9.30;99.90
6439;DHT22;3252;52.540;13.290;2023-04-25T01:29:17;9.30;99.90
6439;DHT22;3252;52.540;13.290;2023-04-25T01:31:20;9.20;99.90
6439;DHT22;3252;52.540;13.290;2023-04-25T01:33:23;9.30;99.90
6439;DHT22;3252;52.540;13.290;2023-04-25T01:35:27;9.30;99.90
6439;DHT22;3252;52.540;13.290;2023-04-25T01:37:29;9.30;99.90
6439;DHT22;3252;52.540;13.290;2023-04-25T01:39:33;9.20;99.90
6439;DHT22;3252;52.540;13.290;2023-04-25T01:41:37;9.30;99.90
6439;DHT22;3252;52.540;13.290;2023-04-25T01:43:39;9.30;99.90
6439;DHT22;3252;52.540;13.290;2023-04-25T01:45:42;9.20;99.90
6439;DHT22;3252;52.540;13.290;2023-04-25T01:47:45;9.20;99.90
6439;DHT22;3252;52.540;13.290;2023-04-25T01:49:51;9.20;99.90
6439;DHT22;3252;52.540;13.290;2023-04-25T01:51:58;9.20;99.90
6439;DHT22;3252;52.540;13.290;2023-04-25T01:54:11;9.20;99.90
6439;DHT22;3252;52.540;13.290;2023-04-25T01:56:20;9.20;99.90
6439;DHT22;3252;52.540;13.290;2023-04-25T01:58:23;9.20;99.90
6439;DHT22;3252;52.540;13.290;2023-04-25T02:00:38;9.20;99.90
6439;DHT22;3252;52.540;13.290;2023-04-25T02:02:41;9.20;99.90
6439;DHT22;3252;52.540;13.290;2023-04-25T02:04:56;9.10;99.90
6439;DHT22;3252;52.540;13.290;2023-04-25T02:07:01;9.10;99.90
6439;DHT22;3252;52.540;13.290;2023-04-25T02:09:13;9.10;99.90
6439;DHT22;3252;52.540;13.290;2023-04-25T02:11:22;9.10;99.90
6439;DHT22;3252;52.540;13.290;2023-04-25T02:13:43;9.10;99.90
6439;DHT22;3252;52.540;13.290;2023-04-25T02:16:05;9.10;99.90
6439;DHT22;3252;52.540;13.290;2023-04-25T02:18:18;9.00;99.90
6439;DHT22;3252;52.540;13.290;2023-04-25T02:20:23;9.00;99.90
6439;DHT22;3252;52.540;13.290;2023-04-25T02:22:25;9.00;99.90
6439;DHT22;3252;52.540;13.290;2023-04-25T02:24:28;9.00;99.90
6439;DHT22;3252;52.540;13.290;2023-04-25T02:26:33;9.00;99.90
6439;DHT22;3252;52.540;13.290;2023-04-25T02:28:38;9.00;99.90
6439;DHT22;3252;52.540;13.290;2023-04-25T02:30:43;9.10;99.90
6439;DHT22;3252;52.540;13.290;2023-04-25T02:32:45;9.00;99.90
6439;DHT22;3252;52.540;13.290;2023-04-25T02:34:48;9.00;99.90
6439;DHT22;3252;52.540;13.290;2023-04-25T02:36:51;9.00;99.90
6439;DHT22;3252;52.540;13.290;2023-04-25T02:38:53;8.90;99.90
6439;DHT22;3252;52.540;13.290;2023-04-25T02:40:58;9.00;99.90
6439;DHT22;3252;52.540;13.290;2023-04-25T02:43:02;9.00;99.90
6439;DHT22;3252;52.540;13.290;2023-04-25T02:45:05;9.00;99.90
6439;DHT22;3252;52.540;13.290;2023-04-25T02:47:09;8.90;99.90
6439;DHT22;3252;52.540;13.290;2023-04-25T02:49:11;8.90;99.90
6439;DHT22;3252;52.540;13.290;2023-04-25T02:51:14;9.00;99.90
6439;DHT22;3252;52.540;13.290;2023-04-25T02:53:20;9.00;99.90
6439;DHT22;3252;52.540;13.290;2023-04-25T02:55:26;9.00;99.90
6439;DHT22;3252;52.540;13.290;2023-04-25T02:57:29;8.90;99.90
6439;DHT22;3252;52.540;13.290;2023-04-25T02:59:33;8.90;99.90
6439;DHT22;3252;52.540;13.290;2023-04-25T03:01:35;8.80;99.90
6439;DHT22;3252;52.540;13.290;2023-04-25T03:03:37;8.80;99.90
6439;DHT22;3252;52.540;13.290;2023-04-25T03:05:40;8.90;99.90
6439;DHT22;3252;52.540;13.290;2023-04-25T03:07:43;8.90;99.90
6439;DHT22;3252;52.540;13.290;2023-04-25T03:09:46;9.00;99.90
6439;DHT22;3252;52.540;13.290;2023-04-25T03:11:49;9.00;99.90
6439;DHT22;3252;52.540;13.290;2023-04-25T03:13:52;9.00;99.90
6439;DHT22;3252;52.540;13.290;2023-04-25T03:15:57;8.90;99.90
6439;DHT22;3252;52.540;13.290;2023-04-25T03:18:00;8.90;99.90
6439;DHT22;3252;52.540;13.290;2023-04-25T03:20:03;8.90;99.90
6439;DHT22;3252;52.540;13.290;2023-04-25T03:22:06;8.90;99.90
6439;DHT22;3252;52.540;13.290;2023-04-25T03:24:10;9.00;99.90
6439;DHT22;3252;52.540;13.290;2023-04-25T03:26:13;8.90;99.90
6439;DHT22;3252;52.540;13.290;2023-04-25T03:28:16;8.90;99.90
6439;DHT22;3252;52.540;13.290;2023-04-25T03:30:19;8.90;99.90
6439;DHT22;3252;52.540;13.290;2023-04-25T03:32:28;9.00;99.90
6439;DHT22;3252;52.540;13.290;2023-04-25T03:34:30;8.90;99.90
6439;DHT22;3252;52.540;13.290;2023-04-25T03:36:33;8.80;99.90
6439;DHT22;3252;52.540;13.290;2023-04-25T03:38:36;8.80;99.90
6439;DHT22;3252;52.540;13.290;2023-04-25T03:40:40;8.80;99.90
6439;DHT22;3252;52.540;13.290;2023-04-25T03:42:49;8.80;99.90
6439;DHT22;3252;52.540;13.290;2023-04-25T03:44:52;8.90;99.90
6439;DHT22;3252;52.540;13.290;2023-04-25T03:46:58;8.90;99.90
6439;DHT22;3252;52.540;13.290;2023-04-25T03:49:05;9.00;99.90
6439;DHT22;3252;52.540;13.290;2023-04-25T03:51:29;8.90;99.90
6439;DHT22;3252;52.540;13.290;2023-04-25T03:53:32;9.00;99.90
6439;DHT22;3252;52.540;13.290;2023-04-25T03:55:53;9.00;99.90
6439;DHT22;3252;52.540;13.290;2023-04-25T03:57:57;9.00;99.90
6439;DHT22;3252;52.540;13.290;2023-04-25T04:00:04;9.00;99.90
6439;DHT22;3252;52.540;13.290;2023-04-25T04:02:17;9.00;99.90
6439;DHT22;3252;52.540;13.290;2023-04-25T04:04:21;9.00;99.90
6439;DHT22;3252;52.540;13.290;2023-04-25T04:06:24;9.00;99.90
6439;DHT22;3252;52.540;13.290;2023-04-25T04:08:33;9.00;99.90
6439;DHT22;3252;52.540;13.290;2023-04-25T04:10:36;9.10;99.90
6439;DHT22;3252;52.540;13.290;2023-04-25T04:12:39;9.10;99.90
6439;DHT22;3252;52.540;13.290;2023-04-25T04:14:44;9.10;99.90
6439;DHT22;3252;52.540;13.290;2023-04-25T04:16:47;9.10;99.90
6439;DHT22;3252;52.540;13.290;2023-04-25T04:18:49;9.10;99.90
6439;DHT22;3252;52.540;13.290;2023-04-25T04:20:59;9.10;99.90
6439;DHT22;3252;52.540;13.290;2023-04-25T04:23:05;9.10;99.90
6439;DHT22;3252;52.540;13.290;2023-04-25T04:25:08;9.10;99.90
6439;DHT22;3252;52.540;13.290;2023-04-25T04:27:31;9.10;99.90
6439;DHT22;3252;52.540;13.290;2023-04-25T04:29:58;9.10;99.90
6439;DHT22;3252;52.540;13.290;2023-04-25T04:32:13;9.10;99.90
6439;DHT22;3252;52.540;13.290;2023-04-25T04:34:15;9.10;99.90
6439;DHT22;3252;52.540;13.290;2023-04-25T04:36:20;9.10;99.90
6439;DHT22;3252;52.540;13.290;2023-04-25T04:38:24;9.20;99.90
6439;DHT22;3252;52.540;13.290;2023-04-25T04:40:33;9.10;99.90
6439;DHT22;3252;52.540;13.290;2023-04-25T04:42:45;9.10;99.90
6439;DHT22;3252;52.540;13.290;2023-04-25T04:45:20;9.10;99.90
6439;DHT22;3252;52.540;13.290;2023-04-25T04:47:47;9.20;99.90
6439;DHT22;3252;52.540;13.290;2023-04-25T04:50:21;9.20;99.90
6439;DHT22;3252;52.540;13.290;2023-04-25T04:52:54;9.20;99.90
6439;DHT22;3252;52.540;13.290;2023-04-25T04:55:28;9.20;99.90
6439;DHT22;3252;52.540;13.290;2023-04-25T04:57:50;9.30;99.90
6439;DHT22;3252;52.540;13.290;2023-04-25T05:00:13;9.30;99.90
6439;DHT22;3252;52.540;13.290;2023-04-25T05:02:38;9.30;99.90
6439;DHT22;3252;52.540;13.290;2023-04-25T05:05:16;9.30;99.90
6439;DHT22;3252;52.540;13.290;2023-04-25T05:07:42;9.40;99.90
6439;DHT22;3252;52.540;13.290;2023-04-25T05:10:19;9.40;99.90
6439;DHT22;3252;52.540;13.290;2023-04-25T05:12:30;9.40;99.90
6439;DHT22;3252;52.540;13.290;2023-04-25T05:14:47;9.30;99.90
6439;DHT22;3252;52.540;13.290;2023-04-25T05:17:12;9.30;99.90
6439;DHT22;3252;52.540;13.290;2023-04-25T05:19:37;9.20;99.90
6439;DHT22;3252;52.540;13.290;2023-04-25T05:22:00;9.30;99.90
6439;DHT22;3252;52.540;13.290;2023-04-25T05:24:11;9.30;99.90
6439;DHT22;3252;52.540;13.290;2023-04-25T05:26:21;9.20;99.90
6439;DHT22;3252;52.540;13.290;2023-04-25T05:28:48;9.20;99.90
6439;DHT22;3252;52.540;13.290;2023-04-25T05:30:51;9.20;99.90
6439;DHT22;3252;52.540;13.290;2023-04-25T05:33:00;9.20;99.90
6439;DHT22;3252;52.540;13.290;2023-04-25T05:35:03;9.20;99.90
6439;DHT22;3252;52.540;13.290;2023-04-25T05:37:14;9.30;99.90
6439;DHT22;3252;52.540;13.290;2023-04-25T05:39:27;9.30;99.90
6439;DHT22;3252;52.540;13.290;2023-04-25T05:42:02;9.30;99.90
6439;DHT22;3252;52.540;13.290;2023-04-25T05:44:23;9.20;99.90
6439;DHT22;3252;52.540;13.290;2023-04-25T05:46:46;9.30;99.90
6439;DHT22;3252;52.540;13.290;2023-04-25T05:49:18;9.30;99.90
6439;DHT22;3252;52.540;13.290;2023-04-25T05:51:58;9.20;99.90
6439;DHT22;3252;52.540;13.290;2023-04-25T05:54:19;9.30;99.90
6439;DHT22;3252;52.540;13.290;2023-04-25T05:56:26;9.30;99.90
6439;DHT22;3252;52.540;13.290;2023-04-25T05:58:30;9.30;99.90
6439;DHT22;3252;52.540;13.290;2023-04-25T06:00:34;9.30;99.90
6439;DHT22;3252;52.540;13.290;2023-04-25T06:02:36;9.30;99.90
6439;DHT22;3252;52.540;13.290;2023-04-25T06:04:39;9.40;99.90
6439;DHT22;3252;52.540;13.290;2023-04-25T06:06:41;9.40;99.90
6439;DHT22;3252;52.540;13.290;2023-04-25T06:08:44;9.50;99.90
6439;DHT22;3252;52.540;13.290;2023-04-25T06:10:46;9.50;99.90
6439;DHT22;3252;52.540;13.290;2023-04-25T06:12:49;9.50;99.90
6439;DHT22;3252;52.540;13.290;2023-04-25T06:14:55;9.50;99.90
6439;DHT22;3252;52.540;13.290;2023-04-25T06:16:57;9.50;99.90
6439;DHT22;3252;52.540;13.290;2023-04-25T06:19:01;9.50;99.90
6439;DHT22;3252;52.540;13.290;2023-04-25T06:21:04;9.50;99.90
6439;DHT22;3252;52.540;13.290;2023-04-25T06:23:07;9.50;99.90
6439;DHT22;3252;52.540;13.290;2023-04-25T06:25:21;9.50;99.90
6439;DHT22;3252;52.540;13.290;2023-04-25T06:27:23;9.50;99.90
6439;DHT22;3252;52.540;13.290;2023-04-25T06:29:26;9.60;99.90
6439;DHT22;3252;52.540;13.290;2023-04-25T06:31:30;9.60;99.90
6439;DHT22;3252;52.540;13.290;2023-04-25T06:33:34;9.60;99.90
6439;DHT22;3252;52.540;13.290;2023-04-25T06:35:37;9.50;99.90
6439;DHT22;3252;52.540;13.290;2023-04-25T06:37:41;9.50;99.90
6439;DHT22;3252;52.540;13.290;2023-04-25T06:39:44;9.50;99.90
6439;DHT22;3252;52.540;13.290;2023-04-25T06:41:46;9.40;99.90
6439;DHT22;3252;52.540;13.290;2023-04-25T06:44:23;9.40;99.90
6439;DHT22;3252;52.540;13.290;2023-04-25T06:46:27;9.50;99.90
6439;DHT22;3252;52.540;13.290;2023-04-25T06:48:34;9.50;99.90
6439;DHT22;3252;52.540;13.290;2023-04-25T06:50:36;9.60;99.90
6439;DHT22;3252;52.540;13.290;2023-04-25T06:52:38;9.60;99.90
6439;DHT22;3252;52.540;13.290;2023-04-25T06:54:41;9.60;99.90
6439;DHT22;3252;52.540;13.290;2023-04-25T06:56:56;9.60;99.90
6439;DHT22;3252;52.540;13.290;2023-04-25T06:58:58;9.60;99.90
6439;DHT22;3252;52.540;13.290;2023-04-25T07:01:07;9.50;99.90
6439;DHT22;3252;52.540;13.290;2023-04-25T07:03:09;9.50;99.90
6439;DHT22;3252;52.540;13.290;2023-04-25T07:05:13;9.50;99.90
6439;DHT22;3252;52.540;13.290;2023-04-25T07:07:16;9.50;99.90
6439;DHT22;3252;52.540;13.290;2023-04-25T07:09:28;9.40;99.90
6439;DHT22;3252;52.540;13.290;2023-04-25T07:11:30;9.30;99.90
6439;DHT22;3252;52.540;13.290;2023-04-25T07:13:33;9.30;99.90
6439;DHT22;3252;52.540;13.290;2023-04-25T07:15:35;9.30;99.90
6439;DHT22;3252;52.540;13.290;2023-04-25T07:17:37;9.30;99.90
6439;DHT22;3252;52.540;13.290;2023-04-25T07:19:40;9.40;99.90
6439;DHT22;3252;52.540;13.290;2023-04-25T07:21:45;9.40;99.90
6439;DHT22;3252;52.540;13.290;2023-04-25T07:23:47;9.40;99.90
6439;DHT22;3252;52.540;13.290;2023-04-25T07:25:54;9.50;99.90
6439;DHT22;3252;52.540;13.290;2023-04-25T07:27:59;9.50;99.90
6439;DHT22;3252;52.540;13.290;2023-04-25T07:30:03;9.60;99.90
6439;DHT22;3252;52.540;13.290;2023-04-25T07:32:06;9.70;99.90
6439;DHT22;3252;52.540;13.290;2023-04-25T07:34:09;9.80;99.90
6439;DHT22;3252;52.540;13.290;2023-04-25T07:36:13;9.70;99.90
6439;DHT22;3252;52.540;13.290;2023-04-25T07:38:17;9.80;99.90
6439;DHT22;3252;52.540;13.290;2023-04-25T07:40:20;9.70;99.90
6439;DHT22;3252;52.540;13.290;2023-04-25T07:42:30;9.70;99.90
6439;DHT22;3252;52.540;13.290;2023-04-25T07:44:32;9.70;99.90
6439;DHT22;3252;52.540;13.290;2023-04-25T07:46:39;9.80;99.90
6439;DHT22;3252;52.540;13.290;2023-04-25T07:48:43;9.80;99.90
6439;DHT22;3252;52.540;13.290;2023-04-25T07:50:45;9.80;99.90
6439;DHT22;3252;52.540;13.290;2023-04-25T07:52:47;9.80;99.90
6439;DHT22;3252;52.540;13.290;2023-04-25T07:54:58;9.90;99.90
6439;DHT22;3252;52.540;13.290;2023-04-25T07:57:12;10.00;99.90
6439;DHT22;3252;52.540;13.290;2023-04-25T07:59:15;10.10;99.90
6439;DHT22;3252;52.540;13.290;2023-04-25T08:01:17;10.20;99.90
6439;DHT22;3252;52.540;13.290;2023-04-25T08:03:26;10.20;99.90
6439;DHT22;3252;52.540;13.290;2023-04-25T08:05:29;10.20;99.90
6439;DHT22;3252;52.540;13.290;2023-04-25T08:07:37;10.30;99.90
6439;DHT22;3252;52.540;13.290;2023-04-25T08:09:40;10.30;99.90
6439;DHT22;3252;52.540;13.290;2023-04-25T08:11:50;10.20;99.90
6439;DHT22;3252;52.540;13.290;2023-04-25T08:13:59;10.20;99.90
6439;DHT22;3252;52.540;13.290;2023-04-25T08:16:02;10.20;99.90
6439;DHT22;3252;52.540;13.290;2023-04-25T08:18:05;10.30;99.90
6439;DHT22;3252;52.540;13.290;2023-04-25T08:20:07;10.50;99.80
6439;DHT22;3252;52.540;13.290;2023-04-25T08:22:12;10.50;98.90
6439;DHT22;3252;52.540;13.290;2023-04-25T08:24:25;10.50;99.30
6439;DHT22;3252;52.540;13.290;2023-04-25T08:26:28;10.60;98.80
6439;DHT22;3252;52.540;13.290;2023-04-25T08:28:31;10.60;98.20
6439;DHT22;3252;52.540;13.290;2023-04-25T08:30:36;10.80;98.40
6439;DHT22;3252;52.540;13.290;2023-04-25T08:32:40;10.70;97.10
6439;DHT22;3252;52.540;13.290;2023-04-25T08:34:54;10.70;97.20
6439;DHT22;3252;52.540;13.290;2023-04-25T08:36:56;10.70;97.40
6439;DHT22;3252;52.540;13.290;2023-04-25T08:39:08;10.80;97.40
6439;DHT22;3252;52.540;13.290;2023-04-25T08:41:21;11.00;95.70
6439;DHT22;3252;52.540;13.290;2023-04-25T08:43:25;11.30;94.60
6439;DHT22;3252;52.540;13.290;2023-04-25T08:45:31;12.10;94.10
6439;DHT22;3252;52.540;13.290;2023-04-25T08:47:35;12.10;90.50
6439;DHT22;3252;52.540;13.290;2023-04-25T08:49:40;12.20;91.50
6439;DHT22;3252;52.540;13.290;2023-04-25T08:51:46;12.70;89.10
6439;DHT22;3252;52.540;13.290;2023-04-25T08:53:51;12.80;80.90
6439;DHT22;3252;52.540;13.290;2023-04-25T08:55:56;13.60;74.30
6439;DHT22;3252;52.540;13.290;2023-04-25T08:57:59;14.60;67.70
6439;DHT22;3252;52.540;13.290;2023-04-25T09:00:02;14.80;57.90
6439;DHT22;3252;52.540;13.290;2023-04-25T09:02:10;15.10;56.10
6439;DHT22;3252;52.540;13.290;2023-04-25T09:04:15;15.30;55.90
6439;DHT22;3252;52.540;13.290;2023-04-25T09:06:18;15.30;55.90
6439;DHT22;3252;52.540;13.290;2023-04-25T09:08:23;15.00;55.30
6439;DHT22;3252;52.540;13.290;2023-04-25T09:10:26;14.90;53.30
6439;DHT22;3252;52.540;13.290;2023-04-25T09:12:31;14.70;52.60
6439;DHT22;3252;52.540;13.290;2023-04-25T09:14:34;14.50;54.20
6439;DHT22;3252;52.540;13.290;2023-04-25T09:17:06;14.50;53.30
6439;DHT22;3252;52.540;13.290;2023-04-25T09:19:22;15.20;53.70
6439;DHT22;3252;52.540;13.290;2023-04-25T09:21:25;14.80;54.20
6439;DHT22;3252;52.540;13.290;2023-04-25T09:23:39;14.90;54.90
6439;DHT22;3252;52.540;13.290;2023-04-25T09:25:41;14.60;53.40
6439;DHT22;3252;52.540;13.290;2023-04-25T09:27:54;15.80;53.50
6439;DHT22;3252;52.540;13.290;2023-04-25T09:30:02;16.70;50.10
6439;DHT22;3252;52.540;13.290;2023-04-25T09:32:22;16.30;46.40
6439;DHT22;3252;52.540;13.290;2023-04-25T09:34:27;15.80;47.10
6439;DHT22;3252;52.540;13.290;2023-04-25T09:36:34;14.90;47.40
6439;DHT22;3252;52.540;13.290;2023-04-25T09:38:55;14.40;48.70
6439;DHT22;3252;52.540;13.290;2023-04-25T09:41:02;14.00;48.40
6439;DHT22;3252;52.540;13.290;2023-04-25T09:43:19;13.40;50.10
6439;DHT22;3252;52.540;13.290;2023-04-25T09:45:23;13.30;50.90
6439;DHT22;3252;52.540;13.290;2023-04-25T09:47:26;13.20;50.50
6439;DHT22;3252;52.540;13.290;2023-04-25T09:49:31;13.20;52.70
6439;DHT22;3252;52.540;13.290;2023-04-25T09:51:40;13.20;52.30
6439;DHT22;3252;52.540;13.290;2023-04-25T09:53:45;13.00;51.70
6439;DHT22;3252;52.540;13.290;2023-04-25T09:56:00;14.30;50.60
6439;DHT22;3252;52.540;13.290;2023-04-25T09:58:06;14.50;47.90
6439;DHT22;3252;52.540;13.290;2023-04-25T10:00:09;14.10;48.90
6439;DHT22;3252;52.540;13.290;2023-04-25T10:02:18;13.80;48.70
6439;DHT22;3252;52.540;13.290;2023-04-25T10:04:24;13.60;50.60
6439;DHT22;3252;52.540;13.290;2023-04-25T10:06:34;13.40;51.40
6439;DHT22;3252;52.540;13.290;2023-04-25T10:08:38;13.30;52.30
6439;DHT22;3252;52.540;13.290;2023-04-25T10:10:41;13.40;51.80
6439;DHT22;3252;52.540;13.290;2023-04-25T10:12:44;13.90;50.20
6439;DHT22;3252;52.540;13.290;2023-04-25T10:14:47;13.50;50.10
6439;DHT22;3252;52.540;13.290;2023-04-25T10:16:50;13.40;50.70
6439;DHT22;3252;52.540;13.290;2023-04-25T10:18:55;13.30;50.60
6439;DHT22;3252;52.540;13.290;2023-04-25T10:21:00;13.50;52.20
6439;DHT22;3252;52.540;13.290;2023-04-25T10:23:11;13.60;51.60
6439;DHT22;3252;52.540;13.290;2023-04-25T10:25:15;13.40;52.00
6439;DHT22;3252;52.540;13.290;2023-04-25T10:27:18;13.10;52.40
6439;DHT22;3252;52.540;13.290;2023-04-25T10:29:24;12.90;53.00
6439;DHT22;3252;52.540;13.290;2023-04-25T10:31:27;12.80;52.90
6439;DHT22;3252;52.540;13.290;2023-04-25T10:33:34;12.70;51.70
6439;DHT22;3252;52.540;13.290;2023-04-25T10:35:38;12.60;53.00
6439;DHT22;3252;52.540;13.290;2023-04-25T10:37:57;12.60;52.80
6439;DHT22;3252;52.540;13.290;2023-04-25T10:40:08;12.60;53.10
6439;DHT22;3252;52.540;13.290;2023-04-25T10:42:11;12.70;52.40
6439;DHT22;3252;52.540;13.290;2023-04-25T10:44:14;12.70;53.10
6439;DHT22;3252;52.540;13.290;2023-04-25T10:46:17;12.60;52.60
6439;DHT22;3252;52.540;13.290;2023-04-25T10:48:25;12.40;51.60
6439;DHT22;3252;52.540;13.290;2023-04-25T10:50:37;12.10;51.80
6439;DHT22;3252;52.540;13.290;2023-04-25T10:52:39;12.20;52.90
6439;DHT22;3252;52.540;13.290;2023-04-25T10:54:42;12.30;53.50
6439;DHT22;3252;52.540;13.290;2023-04-25T10:56:48;12.60;52.30
6439;DHT22;3252;52.540;13.290;2023-04-25T10:58:50;12.70;52.90
6439;DHT22;3252;52.540;13.290;2023-04-25T11:00:53;12.80;52.50
6439;DHT22;3252;52.540;13.290;2023-04-25T11:02:58;12.80;51.60
6439;DHT22;3252;52.540;13.290;2023-04-25T11:05:03;12.80;51.40
6439;DHT22;3252;52.540;13.290;2023-04-25T11:07:10;12.30;50.80
6439;DHT22;3252;52.540;13.290;2023-04-25T11:09:14;12.20;52.50
6439;DHT22;3252;52.540;13.290;2023-04-25T11:11:17;11.90;53.20
6439;DHT22;3252;52.540;13.290;2023-04-25T11:13:21;11.70;54.10
6439;DHT22;3252;52.540;13.290;2023-04-25T11:15:24;11.30;56.10
6439;DHT22;3252;52.540;13.290;2023-04-25T11:17:28;11.10;56.60
6439;DHT22;3252;52.540;13.290;2023-04-25T11:19:31;10.90;57.20
6439;DHT22;3252;52.540;13.290;2023-04-25T11:21:33;11.10;59.90
6439;DHT22;3252;52.540;13.290;2023-04-25T11:23:36;11.10;59.10
6439;DHT22;3252;52.540;13.290;2023-04-25T11:25:38;11.10;55.20
6439;DHT22;3252;52.540;13.290;2023-04-25T11:27:50;11.00;53.50
6439;DHT22;3252;52.540;13.290;2023-04-25T11:29:53;11.10;53.30
6439;DHT22;3252;52.540;13.290;2023-04-25T11:31:58;11.20;54.10
6439;DHT22;3252;52.540;13.290;2023-04-25T11:34:01;11.30;54.80
6439;DHT22;3252;52.540;13.290;2023-04-25T11:36:03;11.30;53.40
6439;DHT22;3252;52.540;13.290;2023-04-25T11:38:06;11.40;53.40
6439;DHT22;3252;52.540;13.290;2023-04-25T11:40:09;11.60;54.00
6439;DHT22;3252;52.540;13.290;2023-04-25T11:42:12;11.70;54.40
6439;DHT22;3252;52.540;13.290;2023-04-25T11:44:15;11.80;52.50
6439;DHT22;3252;52.540;13.290;2023-04-25T11:46:19;11.80;51.20
6439;DHT22;3252;52.540;13.290;2023-04-25T11:48:22;11.80;51.40
6439;DHT22;3252;52.540;13.290;2023-04-25T11:50:24;11.80;52.40
6439;DHT22;3252;52.540;13.290;2023-04-25T11:52:36;11.70;52.50
6439;DHT22;3252;52.540;13.290;2023-04-25T11:54:38;11.70;51.20
6439;DHT22;3252;52.540;13.290;2023-04-25T11:56:41;11.70;51.60
6439;DHT22;3252;52.540;13.290;2023-04-25T11:58:57;11.80;52.10
6439;DHT22;3252;52.540;13.290;2023-04-25T12:00:59;12.10;52.80
6439;DHT22;3252;52.540;13.290;2023-04-25T12:03:03;11.70;51.80
6439;DHT22;3252;52.540;13.290;2023-04-25T12:05:06;11.80;52.30
6439;DHT22;3252;52.540;13.290;2023-04-25T12:07:10;11.70;52.80
6439;DHT22;3252;52.540;13.290;2023-04-25T12:09:12;11.70;53.20
6439;DHT22;3252;52.540;13.290;2023-04-25T12:11:20;11.50;53.60
6439;DHT22;3252;52.540;13.290;2023-04-25T12:13:24;11.50;52.40
6439;DHT22;3252;52.540;13.290;2023-04-25T12:15:26;11.60;52.10
6439;DHT22;3252;52.540;13.290;2023-04-25T12:17:29;11.40;52.20
6439;DHT22;3252;52.540;13.290;2023-04-25T12:19:37;11.40;54.30
6439;DHT22;3252;52.540;13.290;2023-04-25T12:21:40;11.60;53.00
6439;DHT22;3252;52.540;13.290;2023-04-25T12:23:43;11.50;51.20
6439;DHT22;3252;52.540;13.290;2023-04-25T12:25:45;11.60;52.20
6439;DHT22;3252;52.540;13.290;2023-04-25T12:27:48;12.00;52.40
6439;DHT22;3252;52.540;13.290;2023-04-25T12:29:51;12.10;51.50
6439;DHT22;3252;52.540;13.290;2023-04-25T12:31:54;12.10;50.40
6439;DHT22;3252;52.540;13.290;2023-04-25T12:33:57;12.10;50.50
6439;DHT22;3252;52.540;13.290;2023-04-25T12:36:01;12.10;50.80
6439;DHT22;3252;52.540;13.290;2023-04-25T12:38:09;12.10;50.20
6439;DHT22;3252;52.540;13.290;2023-04-25T12:40:11;11.90;50.50
6439;DHT22;3252;52.540;13.290;2023-04-25T12:42:14;11.90;51.50
6439;DHT22;3252;52.540;13.290;2023-04-25T12:44:16;11.90;51.30
6439;DHT22;3252;52.540;13.290;2023-04-25T12:46:18;11.90;51.00
6439;DHT22;3252;52.540;13.290;2023-04-25T12:48:21;11.90;51.00
6439;DHT22;3252;52.540;13.290;2023-04-25T12:50:23;11.80;50.60
6439;DHT22;3252;52.540;13.290;2023-04-25T12:52:27;11.70;49.90
6439;DHT22;3252;52.540;13.290;2023-04-25T12:54:29;11.60;50.40
6439;DHT22;3252;52.540;13.290;2023-04-25T12:56:32;11.60;50.60
6439;DHT22;3252;52.540;13.290;2023-04-25T12:58:34;11.70;51.60
6439;DHT22;3252;52.540;13.290;2023-04-25T13:00:36;11.90;50.70
6439;DHT22;3252;52.540;13.290;2023-04-25T13:02:38;12.00;51.30
6439;DHT22;3252;52.540;13.290;2023-04-25T13:04:40;12.20;51.00
6439;DHT22;3252;52.540;13.290;2023-04-25T13:06:42;12.20;48.60
6439;DHT22;3252;52.540;13.290;2023-04-25T13:08:46;12.40;49.70
6439;DHT22;3252;52.540;13.290;2023-04-25T13:10:49;12.60;51.30
6439;DHT22;3252;52.540;13.290;2023-04-25T13:12:51;12.70;51.10
6439;DHT22;3252;52.540;13.290;2023-04-25T13:14:53;12.80;50.90
6439;DHT22;3252;52.540;13.290;2023-04-25T13:16:55;12.60;49.00
6439;DHT22;3252;52.540;13.290;2023-04-25T13:18:58;12.40;48.70
6439;DHT22;3252;52.540;13.290;2023-04-25T13:21:00;12.40;48.90
6439;DHT22;3252;52.540;13.290;2023-04-25T13:23:02;12.10;49.60
6439;DHT22;3252;52.540;13.290;2023-04-25T13:25:07;12.00;50.20
6439;DHT22;3252;52.540;13.290;2023-04-25T13:27:10;12.00;51.30
6439;DHT22;3252;52.540;13.290;2023-04-25T13:29:12;11.90;50.60
6439;DHT22;3252;52.540;13.290;2023-04-25T13:31:14;12.00;51.40
6439;DHT22;3252;52.540;13.290;2023-04-25T13:33:16;11.90;52.30
6439;DHT22;3252;52.540;13.290;2023-04-25T13:35:18;11.90;52.50
6439;DHT22;3252;52.540;13.290;2023-04-25T13:37:21;12.00;53.40
6439;DHT22;3252;52.540;13.290;2023-04-25T13:39:24;11.90;53.10